sensor_id;sensor_type;location;lat;lon;timestamp;P1;durP1;ratioP1;P2;durP2;ratioP2
32734;SDS011;19112;51.076;3.706;2022-07-29T00:02:11;18.88;;;5.38;;
32734;SDS011;19112;51.076;3.706;2022-07-29T00:04:37;11.65;;;4.28;;
32734;SDS011;19112;51.076;3.706;2022-07-29T00:07:03;13.27;;;4.50;;
32734;SDS011;19112;51.076;3.706;2022-07-29T00:09:30;22.45;;;5.97;;
32734;SDS011;19112;51.076;3.706;2022-07-29T00:11:57;20.50;;;5.47;;
32734;SDS011;19112;51.076;3.706;2022-07-29T00:14:25;16.88;;;4.53;;
32734;SDS011;19112;51.076;3.706;2022-07-29T00:16:52;17.08;;;4.90;;
32734;SDS011;19112;51.076;3.706;2022-07-29T00:19:18;14.38;;;4.60;;
32734;SDS011;19112;51.076;3.706;2022-07-29T00:21:44;15.15;;;4.70;;
32734;SDS011;19112;51.076;3.706;2022-07-29T00:24:09;22.23;;;4.88;;
32734;SDS011;19112;51.076;3.706;2022-07-29T00:26:35;17.90;;;4.50;;
32734;SDS011;19112;51.076;3.706;2022-07-29T00:29:02;24.02;;;4.90;;
32734;SDS011;19112;51.076;3.706;2022-07-29T00:31:29;19.08;;;5.07;;
32734;SDS011;19112;51.076;3.706;2022-07-29T00:33:55;23.70;;;5.00;;
32734;SDS011;19112;51.076;3.706;2022-07-29T00:36:21;17.67;;;4.85;;
32734;SDS011;19112;51.076;3.706;2022-07-29T00:38:48;13.85;;;4.57;;
32734;SDS011;19112;51.076;3.706;2022-07-29T00:41:15;17.08;;;4.90;;
32734;SDS011;19112;51.076;3.706;2022-07-29T00:43:42;18.13;;;5.40;;
32734;SDS011;19112;51.076;3.706;2022-07-29T00:46:09;14.75;;;5.00;;
32734;SDS011;19112;51.076;3.706;2022-07-29T00:48:35;18.40;;;4.65;;
32734;SDS011;19112;51.076;3.706;2022-07-29T00:51:01;17.80;;;4.78;;
32734;SDS011;19112;51.076;3.706;2022-07-29T00:53:29;17.98;;;5.20;;
32734;SDS011;19112;51.076;3.706;2022-07-29T00:55:56;13.68;;;4.70;;
32734;SDS011;19112;51.076;3.706;2022-07-29T00:58:23;10.13;;;3.53;;
32734;SDS011;19112;51.076;3.706;2022-07-29T01:00:51;15.85;;;3.45;;
32734;SDS011;19112;51.076;3.706;2022-07-29T01:03:17;11.75;;;3.30;;
32734;SDS011;19112;51.076;3.706;2022-07-29T01:05:43;10.07;;;3.50;;
32734;SDS011;19112;51.076;3.706;2022-07-29T01:08:11;11.35;;;3.38;;
32734;SDS011;19112;51.076;3.706;2022-07-29T01:10:40;9.57;;;3.10;;
32734;SDS011;19112;51.076;3.706;2022-07-29T01:13:08;11.00;;;3.10;;
32734;SDS011;19112;51.076;3.706;2022-07-29T01:15:37;9.95;;;3.28;;
32734;SDS011;19112;51.076;3.706;2022-07-29T01:18:22;9.27;;;3.35;;
32734;SDS011;19112;51.076;3.706;2022-07-29T01:30:03;14.30;;;3.38;;
32734;SDS011;19112;51.076;3.706;2022-07-29T01:32:31;8.27;;;3.25;;
32734;SDS011;19112;51.076;3.706;2022-07-29T01:37:50;6.75;;;2.83;;
32734;SDS011;19112;51.076;3.706;2022-07-29T01:40:27;9.48;;;3.10;;
32734;SDS011;19112;51.076;3.706;2022-07-29T01:43:03;11.27;;;3.00;;
32734;SDS011;19112;51.076;3.706;2022-07-29T01:45:51;9.25;;;3.25;;
32734;SDS011;19112;51.076;3.706;2022-07-29T01:51:16;7.75;;;2.63;;
32734;SDS011;19112;51.076;3.706;2022-07-29T01:53:54;7.53;;;3.20;;
32734;SDS011;19112;51.076;3.706;2022-07-29T01:56:27;14.13;;;4.10;;
32734;SDS011;19112;51.076;3.706;2022-07-29T01:58:57;12.68;;;3.95;;
32734;SDS011;19112;51.076;3.706;2022-07-29T02:01:25;14.65;;;4.35;;
32734;SDS011;19112;51.076;3.706;2022-07-29T02:03:52;12.52;;;4.20;;
32734;SDS011;19112;51.076;3.706;2022-07-29T02:06:20;10.50;;;4.07;;
32734;SDS011;19112;51.076;3.706;2022-07-29T02:08:48;13.00;;;4.20;;
32734;SDS011;19112;51.076;3.706;2022-07-29T02:11:17;11.48;;;3.97;;
32734;SDS011;19112;51.076;3.706;2022-07-29T02:13:43;11.88;;;4.20;;
32734;SDS011;19112;51.076;3.706;2022-07-29T02:16:10;16.73;;;4.25;;
32734;SDS011;19112;51.076;3.706;2022-07-29T02:18:39;9.70;;;4.05;;
32734;SDS011;19112;51.076;3.706;2022-07-29T02:21:09;11.80;;;4.10;;
32734;SDS011;19112;51.076;3.706;2022-07-29T02:23:36;15.32;;;4.20;;
32734;SDS011;19112;51.076;3.706;2022-07-29T02:26:04;13.95;;;4.03;;
32734;SDS011;19112;51.076;3.706;2022-07-29T02:28:31;10.77;;;4.10;;
32734;SDS011;19112;51.076;3.706;2022-07-29T02:30:59;14.52;;;4.00;;
32734;SDS011;19112;51.076;3.706;2022-07-29T02:33:27;13.88;;;4.25;;
32734;SDS011;19112;51.076;3.706;2022-07-29T02:35:55;16.55;;;4.68;;
32734;SDS011;19112;51.076;3.706;2022-07-29T02:38:23;15.95;;;4.65;;
32734;SDS011;19112;51.076;3.706;2022-07-29T02:41:11;18.83;;;4.40;;
32734;SDS011;19112;51.076;3.706;2022-07-29T02:43:43;13.70;;;4.55;;
32734;SDS011;19112;51.076;3.706;2022-07-29T02:46:13;12.10;;;4.20;;
32734;SDS011;19112;51.076;3.706;2022-07-29T02:48:48;12.05;;;4.25;;
32734;SDS011;19112;51.076;3.706;2022-07-29T02:51:46;17.50;;;4.68;;
32734;SDS011;19112;51.076;3.706;2022-07-29T02:57:30;14.05;;;4.63;;
32734;SDS011;19112;51.076;3.706;2022-07-29T03:00:04;11.00;;;4.28;;
32734;SDS011;19112;51.076;3.706;2022-07-29T03:02:39;14.13;;;4.68;;
32734;SDS011;19112;51.076;3.706;2022-07-29T03:05:11;12.73;;;4.55;;
32734;SDS011;19112;51.076;3.706;2022-07-29T03:07:44;13.15;;;4.40;;
32734;SDS011;19112;51.076;3.706;2022-07-29T03:10:14;14.43;;;4.15;;
32734;SDS011;19112;51.076;3.706;2022-07-29T03:12:41;12.48;;;4.85;;
32734;SDS011;19112;51.076;3.706;2022-07-29T03:15:08;10.57;;;4.10;;
32734;SDS011;19112;51.076;3.706;2022-07-29T03:17:34;11.57;;;4.35;;
32734;SDS011;19112;51.076;3.706;2022-07-29T03:20:01;14.00;;;4.43;;
32734;SDS011;19112;51.076;3.706;2022-07-29T03:22:28;13.75;;;4.30;;
32734;SDS011;19112;51.076;3.706;2022-07-29T03:24:55;12.07;;;5.05;;
32734;SDS011;19112;51.076;3.706;2022-07-29T03:27:20;16.08;;;4.40;;
32734;SDS011;19112;51.076;3.706;2022-07-29T03:29:46;13.98;;;4.47;;
32734;SDS011;19112;51.076;3.706;2022-07-29T03:32:12;11.95;;;4.00;;
32734;SDS011;19112;51.076;3.706;2022-07-29T03:34:38;13.35;;;4.43;;
32734;SDS011;19112;51.076;3.706;2022-07-29T03:37:04;12.25;;;4.28;;
32734;SDS011;19112;51.076;3.706;2022-07-29T03:39:31;8.05;;;3.88;;
32734;SDS011;19112;51.076;3.706;2022-07-29T03:42:03;10.65;;;4.53;;
32734;SDS011;19112;51.076;3.706;2022-07-29T03:44:31;12.40;;;4.47;;
32734;SDS011;19112;51.076;3.706;2022-07-29T03:46:59;12.27;;;4.53;;
32734;SDS011;19112;51.076;3.706;2022-07-29T03:49:27;14.10;;;4.35;;
32734;SDS011;19112;51.076;3.706;2022-07-29T03:51:54;13.43;;;4.57;;
32734;SDS011;19112;51.076;3.706;2022-07-29T03:54:20;15.38;;;5.28;;
32734;SDS011;19112;51.076;3.706;2022-07-29T03:56:46;14.98;;;5.43;;
32734;SDS011;19112;51.076;3.706;2022-07-29T03:59:15;12.82;;;4.28;;
32734;SDS011;19112;51.076;3.706;2022-07-29T04:01:42;14.27;;;4.90;;
32734;SDS011;19112;51.076;3.706;2022-07-29T04:04:09;12.90;;;4.60;;
32734;SDS011;19112;51.076;3.706;2022-07-29T04:06:42;14.88;;;5.13;;
32734;SDS011;19112;51.076;3.706;2022-07-29T04:09:11;16.88;;;5.10;;
32734;SDS011;19112;51.076;3.706;2022-07-29T04:11:40;18.35;;;5.63;;
32734;SDS011;19112;51.076;3.706;2022-07-29T04:14:07;12.77;;;4.65;;
32734;SDS011;19112;51.076;3.706;2022-07-29T04:16:33;12.70;;;4.50;;
32734;SDS011;19112;51.076;3.706;2022-07-29T04:18:59;15.07;;;4.57;;
32734;SDS011;19112;51.076;3.706;2022-07-29T04:21:25;15.88;;;4.95;;
32734;SDS011;19112;51.076;3.706;2022-07-29T04:23:50;14.40;;;4.65;;
32734;SDS011;19112;51.076;3.706;2022-07-29T04:26:17;16.45;;;4.72;;
32734;SDS011;19112;51.076;3.706;2022-07-29T04:28:43;14.75;;;4.72;;
32734;SDS011;19112;51.076;3.706;2022-07-29T04:31:10;11.13;;;4.65;;
32734;SDS011;19112;51.076;3.706;2022-07-29T04:33:38;13.18;;;4.80;;
32734;SDS011;19112;51.076;3.706;2022-07-29T04:36:04;10.93;;;4.05;;
32734;SDS011;19112;51.076;3.706;2022-07-29T04:38:30;14.35;;;4.70;;
32734;SDS011;19112;51.076;3.706;2022-07-29T04:40:56;14.00;;;4.93;;
32734;SDS011;19112;51.076;3.706;2022-07-29T04:43:22;12.95;;;5.28;;
32734;SDS011;19112;51.076;3.706;2022-07-29T04:45:47;13.65;;;5.22;;
32734;SDS011;19112;51.076;3.706;2022-07-29T04:48:13;13.07;;;5.00;;
32734;SDS011;19112;51.076;3.706;2022-07-29T04:50:39;11.13;;;4.68;;
32734;SDS011;19112;51.076;3.706;2022-07-29T04:53:06;15.05;;;5.25;;
32734;SDS011;19112;51.076;3.706;2022-07-29T04:55:32;13.50;;;4.40;;
32734;SDS011;19112;51.076;3.706;2022-07-29T04:57:58;24.92;;;6.60;;
32734;SDS011;19112;51.076;3.706;2022-07-29T05:00:25;12.02;;;4.90;;
32734;SDS011;19112;51.076;3.706;2022-07-29T05:02:51;18.15;;;5.18;;
32734;SDS011;19112;51.076;3.706;2022-07-29T05:05:16;15.20;;;5.13;;
32734;SDS011;19112;51.076;3.706;2022-07-29T05:07:42;14.00;;;4.68;;
32734;SDS011;19112;51.076;3.706;2022-07-29T05:10:08;18.27;;;4.63;;
32734;SDS011;19112;51.076;3.706;2022-07-29T05:12:34;13.98;;;4.30;;
32734;SDS011;19112;51.076;3.706;2022-07-29T05:15:00;9.45;;;4.50;;
32734;SDS011;19112;51.076;3.706;2022-07-29T05:17:26;15.52;;;4.80;;
32734;SDS011;19112;51.076;3.706;2022-07-29T05:19:52;13.05;;;5.20;;
32734;SDS011;19112;51.076;3.706;2022-07-29T05:22:18;9.55;;;4.50;;
32734;SDS011;19112;51.076;3.706;2022-07-29T05:24:45;10.00;;;4.32;;
32734;SDS011;19112;51.076;3.706;2022-07-29T05:27:11;11.73;;;4.32;;
32734;SDS011;19112;51.076;3.706;2022-07-29T05:29:37;14.18;;;4.85;;
32734;SDS011;19112;51.076;3.706;2022-07-29T05:32:03;13.82;;;4.32;;
32734;SDS011;19112;51.076;3.706;2022-07-29T05:34:30;13.70;;;4.35;;
32734;SDS011;19112;51.076;3.706;2022-07-29T05:36:56;14.13;;;4.78;;
32734;SDS011;19112;51.076;3.706;2022-07-29T05:39:22;14.70;;;4.30;;
32734;SDS011;19112;51.076;3.706;2022-07-29T05:41:49;11.23;;;4.70;;
32734;SDS011;19112;51.076;3.706;2022-07-29T05:44:14;12.82;;;4.28;;
32734;SDS011;19112;51.076;3.706;2022-07-29T05:46:40;14.73;;;4.53;;
32734;SDS011;19112;51.076;3.706;2022-07-29T05:49:06;12.35;;;4.50;;
32734;SDS011;19112;51.076;3.706;2022-07-29T05:51:34;10.10;;;4.05;;
32734;SDS011;19112;51.076;3.706;2022-07-29T05:54:01;10.02;;;4.20;;
32734;SDS011;19112;51.076;3.706;2022-07-29T05:56:27;14.20;;;4.45;;
32734;SDS011;19112;51.076;3.706;2022-07-29T05:58:53;12.50;;;4.30;;
32734;SDS011;19112;51.076;3.706;2022-07-29T06:01:19;16.63;;;4.10;;
32734;SDS011;19112;51.076;3.706;2022-07-29T06:03:45;17.48;;;5.05;;
32734;SDS011;19112;51.076;3.706;2022-07-29T06:06:12;14.52;;;4.60;;
32734;SDS011;19112;51.076;3.706;2022-07-29T06:08:37;13.77;;;4.35;;
32734;SDS011;19112;51.076;3.706;2022-07-29T06:11:05;12.05;;;4.70;;
32734;SDS011;19112;51.076;3.706;2022-07-29T06:13:32;12.73;;;4.93;;
32734;SDS011;19112;51.076;3.706;2022-07-29T06:15:57;19.42;;;5.10;;
32734;SDS011;19112;51.076;3.706;2022-07-29T06:18:23;15.68;;;5.65;;
32734;SDS011;19112;51.076;3.706;2022-07-29T06:20:50;17.17;;;5.40;;
32734;SDS011;19112;51.076;3.706;2022-07-29T06:23:16;13.45;;;5.30;;
32734;SDS011;19112;51.076;3.706;2022-07-29T06:25:43;15.52;;;4.82;;
32734;SDS011;19112;51.076;3.706;2022-07-29T06:28:09;19.48;;;8.02;;
32734;SDS011;19112;51.076;3.706;2022-07-29T06:30:35;19.67;;;6.80;;
32734;SDS011;19112;51.076;3.706;2022-07-29T06:33:01;22.85;;;7.97;;
32734;SDS011;19112;51.076;3.706;2022-07-29T06:35:28;20.95;;;9.25;;
32734;SDS011;19112;51.076;3.706;2022-07-29T06:37:54;21.05;;;9.48;;
32734;SDS011;19112;51.076;3.706;2022-07-29T06:40:20;21.80;;;10.02;;
32734;SDS011;19112;51.076;3.706;2022-07-29T06:43:04;28.13;;;10.85;;
32734;SDS011;19112;51.076;3.706;2022-07-29T06:45:33;26.38;;;10.88;;
32734;SDS011;19112;51.076;3.706;2022-07-29T06:47:59;25.38;;;9.93;;
32734;SDS011;19112;51.076;3.706;2022-07-29T06:50:25;22.77;;;9.98;;
32734;SDS011;19112;51.076;3.706;2022-07-29T06:52:51;25.10;;;10.27;;
32734;SDS011;19112;51.076;3.706;2022-07-29T06:55:17;23.27;;;11.00;;
32734;SDS011;19112;51.076;3.706;2022-07-29T06:57:44;24.83;;;11.43;;
32734;SDS011;19112;51.076;3.706;2022-07-29T07:00:11;26.02;;;11.27;;
32734;SDS011;19112;51.076;3.706;2022-07-29T07:02:38;23.02;;;10.15;;
32734;SDS011;19112;51.076;3.706;2022-07-29T07:05:04;25.40;;;10.82;;
32734;SDS011;19112;51.076;3.706;2022-07-29T07:07:30;29.88;;;13.38;;
32734;SDS011;19112;51.076;3.706;2022-07-29T07:09:56;29.23;;;12.73;;
32734;SDS011;19112;51.076;3.706;2022-07-29T07:12:22;29.60;;;12.40;;
32734;SDS011;19112;51.076;3.706;2022-07-29T07:14:48;26.95;;;11.93;;
32734;SDS011;19112;51.076;3.706;2022-07-29T07:17:14;27.50;;;13.25;;
32734;SDS011;19112;51.076;3.706;2022-07-29T07:19:39;32.95;;;13.57;;
32734;SDS011;19112;51.076;3.706;2022-07-29T07:22:05;35.47;;;13.68;;
32734;SDS011;19112;51.076;3.706;2022-07-29T07:24:31;32.80;;;13.15;;
32734;SDS011;19112;51.076;3.706;2022-07-29T07:26:56;31.10;;;13.18;;
32734;SDS011;19112;51.076;3.706;2022-07-29T07:29:22;27.73;;;10.45;;
32734;SDS011;19112;51.076;3.706;2022-07-29T07:31:48;25.95;;;10.30;;
32734;SDS011;19112;51.076;3.706;2022-07-29T07:34:14;25.10;;;10.38;;
32734;SDS011;19112;51.076;3.706;2022-07-29T07:36:40;23.05;;;10.40;;
32734;SDS011;19112;51.076;3.706;2022-07-29T07:39:06;25.98;;;9.68;;
32734;SDS011;19112;51.076;3.706;2022-07-29T07:41:32;35.13;;;10.10;;
32734;SDS011;19112;51.076;3.706;2022-07-29T07:43:57;22.45;;;9.75;;
32734;SDS011;19112;51.076;3.706;2022-07-29T07:46:23;24.52;;;9.60;;
32734;SDS011;19112;51.076;3.706;2022-07-29T07:48:49;29.35;;;9.50;;
32734;SDS011;19112;51.076;3.706;2022-07-29T07:51:17;22.77;;;8.23;;
32734;SDS011;19112;51.076;3.706;2022-07-29T07:53:43;22.73;;;8.20;;
32734;SDS011;19112;51.076;3.706;2022-07-29T07:56:09;20.70;;;7.55;;
32734;SDS011;19112;51.076;3.706;2022-07-29T07:58:35;22.70;;;7.88;;
32734;SDS011;19112;51.076;3.706;2022-07-29T08:01:01;17.55;;;6.20;;
32734;SDS011;19112;51.076;3.706;2022-07-29T08:03:28;25.10;;;6.88;;
32734;SDS011;19112;51.076;3.706;2022-07-29T08:05:53;21.55;;;6.15;;
32734;SDS011;19112;51.076;3.706;2022-07-29T08:08:19;19.48;;;6.32;;
32734;SDS011;19112;51.076;3.706;2022-07-29T08:10:46;18.95;;;6.38;;
32734;SDS011;19112;51.076;3.706;2022-07-29T08:13:18;17.10;;;6.03;;
32734;SDS011;19112;51.076;3.706;2022-07-29T08:15:45;17.02;;;5.90;;
32734;SDS011;19112;51.076;3.706;2022-07-29T08:18:12;15.23;;;5.72;;
32734;SDS011;19112;51.076;3.706;2022-07-29T08:20:38;12.57;;;5.65;;
32734;SDS011;19112;51.076;3.706;2022-07-29T08:23:06;15.10;;;5.22;;
32734;SDS011;19112;51.076;3.706;2022-07-29T08:25:36;13.60;;;5.88;;
32734;SDS011;19112;51.076;3.706;2022-07-29T08:28:05;20.08;;;7.35;;
32734;SDS011;19112;51.076;3.706;2022-07-29T08:30:31;14.05;;;6.60;;
32734;SDS011;19112;51.076;3.706;2022-07-29T08:32:57;16.33;;;6.70;;
32734;SDS011;19112;51.076;3.706;2022-07-29T08:35:24;18.42;;;6.40;;
32734;SDS011;19112;51.076;3.706;2022-07-29T08:37:50;18.67;;;7.18;;
32734;SDS011;19112;51.076;3.706;2022-07-29T08:40:17;15.48;;;6.00;;
32734;SDS011;19112;51.076;3.706;2022-07-29T08:42:45;15.63;;;5.43;;
32734;SDS011;19112;51.076;3.706;2022-07-29T08:45:11;12.32;;;5.05;;
32734;SDS011;19112;51.076;3.706;2022-07-29T08:47:38;13.50;;;5.50;;
32734;SDS011;19112;51.076;3.706;2022-07-29T08:50:05;18.13;;;4.78;;
32734;SDS011;19112;51.076;3.706;2022-07-29T08:52:36;12.45;;;5.38;;
32734;SDS011;19112;51.076;3.706;2022-07-29T08:55:05;15.55;;;5.80;;
32734;SDS011;19112;51.076;3.706;2022-07-29T08:57:34;12.27;;;4.72;;
32734;SDS011;19112;51.076;3.706;2022-07-29T09:00:02;14.73;;;4.82;;
32734;SDS011;19112;51.076;3.706;2022-07-29T09:02:33;13.00;;;4.88;;
32734;SDS011;19112;51.076;3.706;2022-07-29T09:05:05;10.88;;;4.93;;
32734;SDS011;19112;51.076;3.706;2022-07-29T09:07:32;12.13;;;5.15;;
32734;SDS011;19112;51.076;3.706;2022-07-29T09:09:58;14.80;;;5.53;;
32734;SDS011;19112;51.076;3.706;2022-07-29T09:12:25;13.02;;;4.90;;
32734;SDS011;19112;51.076;3.706;2022-07-29T09:14:51;16.02;;;5.95;;
32734;SDS011;19112;51.076;3.706;2022-07-29T09:17:17;11.70;;;4.85;;
32734;SDS011;19112;51.076;3.706;2022-07-29T09:19:44;13.18;;;5.03;;
32734;SDS011;19112;51.076;3.706;2022-07-29T09:22:10;14.18;;;4.88;;
32734;SDS011;19112;51.076;3.706;2022-07-29T09:24:38;14.07;;;5.32;;
32734;SDS011;19112;51.076;3.706;2022-07-29T09:32:56;11.20;;;4.78;;
32734;SDS011;19112;51.076;3.706;2022-07-29T09:35:26;11.60;;;4.40;;
32734;SDS011;19112;51.076;3.706;2022-07-29T09:37:54;12.27;;;5.05;;
32734;SDS011;19112;51.076;3.706;2022-07-29T09:42:48;11.93;;;5.40;;
32734;SDS011;19112;51.076;3.706;2022-07-29T09:45:37;12.07;;;5.05;;
32734;SDS011;19112;51.076;3.706;2022-07-29T09:48:22;13.48;;;5.10;;
32734;SDS011;19112;51.076;3.706;2022-07-29T09:50:50;14.30;;;4.90;;
32734;SDS011;19112;51.076;3.706;2022-07-29T09:56:12;14.93;;;5.13;;
32734;SDS011;19112;51.076;3.706;2022-07-29T09:58:39;11.60;;;4.32;;
32734;SDS011;19112;51.076;3.706;2022-07-29T10:01:05;13.70;;;3.90;;
32734;SDS011;19112;51.076;3.706;2022-07-29T10:03:30;11.32;;;3.30;;
32734;SDS011;19112;51.076;3.706;2022-07-29T10:06:30;17.17;;;3.88;;
32734;SDS011;19112;51.076;3.706;2022-07-29T10:08:49;9.23;;;3.05;;
32734;SDS011;19112;51.076;3.706;2022-07-29T10:11:16;10.88;;;3.22;;
32734;SDS011;19112;51.076;3.706;2022-07-29T10:13:43;6.85;;;2.97;;
32734;SDS011;19112;51.076;3.706;2022-07-29T10:16:11;11.52;;;3.17;;
32734;SDS011;19112;51.076;3.706;2022-07-29T10:18:38;7.60;;;3.20;;
32734;SDS011;19112;51.076;3.706;2022-07-29T10:21:06;8.18;;;2.75;;
32734;SDS011;19112;51.076;3.706;2022-07-29T10:23:32;11.88;;;3.33;;
32734;SDS011;19112;51.076;3.706;2022-07-29T10:25:59;7.05;;;2.75;;
32734;SDS011;19112;51.076;3.706;2022-07-29T10:28:26;8.23;;;2.53;;
32734;SDS011;19112;51.076;3.706;2022-07-29T10:30:52;10.10;;;2.80;;
32734;SDS011;19112;51.076;3.706;2022-07-29T10:33:47;8.48;;;3.10;;
32734;SDS011;19112;51.076;3.706;2022-07-29T10:36:57;7.82;;;3.00;;
32734;SDS011;19112;51.076;3.706;2022-07-29T10:39:40;8.73;;;2.90;;
32734;SDS011;19112;51.076;3.706;2022-07-29T10:42:59;9.15;;;2.97;;
32734;SDS011;19112;51.076;3.706;2022-07-29T10:45:42;9.18;;;3.28;;
32734;SDS011;19112;51.076;3.706;2022-07-29T10:48:11;9.93;;;2.90;;
32734;SDS011;19112;51.076;3.706;2022-07-29T10:56:25;9.48;;;3.30;;
32734;SDS011;19112;51.076;3.706;2022-07-29T11:01:44;9.85;;;3.38;;
32734;SDS011;19112;51.076;3.706;2022-07-29T11:04:14;9.00;;;2.67;;
32734;SDS011;19112;51.076;3.706;2022-07-29T11:07:06;9.80;;;3.03;;
32734;SDS011;19112;51.076;3.706;2022-07-29T11:09:33;8.50;;;3.25;;
32734;SDS011;19112;51.076;3.706;2022-07-29T11:11:59;6.53;;;3.20;;
32734;SDS011;19112;51.076;3.706;2022-07-29T11:15:08;10.35;;;3.35;;
32734;SDS011;19112;51.076;3.706;2022-07-29T11:17:16;9.00;;;3.05;;
32734;SDS011;19112;51.076;3.706;2022-07-29T11:19:43;6.40;;;3.10;;
32734;SDS011;19112;51.076;3.706;2022-07-29T11:22:09;10.07;;;3.20;;
32734;SDS011;19112;51.076;3.706;2022-07-29T11:24:37;6.43;;;2.80;;
32734;SDS011;19112;51.076;3.706;2022-07-29T11:27:10;10.48;;;3.50;;
32734;SDS011;19112;51.076;3.706;2022-07-29T11:29:48;9.60;;;3.25;;
32734;SDS011;19112;51.076;3.706;2022-07-29T11:32:17;9.40;;;2.88;;
32734;SDS011;19112;51.076;3.706;2022-07-29T11:34:47;10.95;;;2.78;;
32734;SDS011;19112;51.076;3.706;2022-07-29T11:37:14;12.10;;;3.63;;
32734;SDS011;19112;51.076;3.706;2022-07-29T11:45:00;12.55;;;3.03;;
32734;SDS011;19112;51.076;3.706;2022-07-29T11:47:50;8.63;;;2.70;;
32734;SDS011;19112;51.076;3.706;2022-07-29T11:50:32;6.28;;;2.60;;
32734;SDS011;19112;51.076;3.706;2022-07-29T11:53:02;9.55;;;2.58;;
32734;SDS011;19112;51.076;3.706;2022-07-29T11:55:37;7.50;;;2.78;;
32734;SDS011;19112;51.076;3.706;2022-07-29T11:58:04;9.05;;;2.95;;
32734;SDS011;19112;51.076;3.706;2022-07-29T12:00:32;9.65;;;2.90;;
32734;SDS011;19112;51.076;3.706;2022-07-29T12:03:03;7.50;;;2.50;;
32734;SDS011;19112;51.076;3.706;2022-07-29T12:05:33;10.50;;;2.97;;
32734;SDS011;19112;51.076;3.706;2022-07-29T12:08:17;9.82;;;3.13;;
32734;SDS011;19112;51.076;3.706;2022-07-29T12:10:47;14.50;;;3.90;;
32734;SDS011;19112;51.076;3.706;2022-07-29T12:13:16;9.65;;;2.90;;
32734;SDS011;19112;51.076;3.706;2022-07-29T12:15:54;8.00;;;2.75;;
32734;SDS011;19112;51.076;3.706;2022-07-29T12:18:22;7.20;;;2.70;;
32734;SDS011;19112;51.076;3.706;2022-07-29T12:20:49;12.07;;;3.28;;
32734;SDS011;19112;51.076;3.706;2022-07-29T12:23:28;7.70;;;2.60;;
32734;SDS011;19112;51.076;3.706;2022-07-29T12:25:55;9.50;;;3.05;;
32734;SDS011;19112;51.076;3.706;2022-07-29T12:28:23;6.63;;;2.90;;
32734;SDS011;19112;51.076;3.706;2022-07-29T12:30:49;8.93;;;3.03;;
32734;SDS011;19112;51.076;3.706;2022-07-29T12:33:34;7.95;;;3.13;;
32734;SDS011;19112;51.076;3.706;2022-07-29T12:36:01;6.63;;;2.58;;
32734;SDS011;19112;51.076;3.706;2022-07-29T12:38:28;8.45;;;2.75;;
32734;SDS011;19112;51.076;3.706;2022-07-29T12:40:54;9.23;;;2.70;;
32734;SDS011;19112;51.076;3.706;2022-07-29T12:43:21;12.98;;;2.90;;
32734;SDS011;19112;51.076;3.706;2022-07-29T12:45:50;10.20;;;2.67;;
32734;SDS011;19112;51.076;3.706;2022-07-29T12:48:34;9.70;;;2.90;;
32734;SDS011;19112;51.076;3.706;2022-07-29T12:51:08;8.55;;;2.80;;
32734;SDS011;19112;51.076;3.706;2022-07-29T12:53:36;7.13;;;3.40;;
32734;SDS011;19112;51.076;3.706;2022-07-29T12:56:04;11.05;;;3.15;;
32734;SDS011;19112;51.076;3.706;2022-07-29T12:58:38;10.85;;;3.05;;
32734;SDS011;19112;51.076;3.706;2022-07-29T13:01:10;8.85;;;3.10;;
32734;SDS011;19112;51.076;3.706;2022-07-29T13:03:45;7.78;;;3.15;;
32734;SDS011;19112;51.076;3.706;2022-07-29T13:09:13;12.38;;;4.20;;
32734;SDS011;19112;51.076;3.706;2022-07-29T13:11:43;10.40;;;3.63;;
32734;SDS011;19112;51.076;3.706;2022-07-29T13:14:34;5.97;;;2.90;;
32734;SDS011;19112;51.076;3.706;2022-07-29T13:17:08;14.00;;;3.85;;
32734;SDS011;19112;51.076;3.706;2022-07-29T13:19:42;10.15;;;3.30;;
32734;SDS011;19112;51.076;3.706;2022-07-29T13:22:18;15.27;;;4.45;;
32734;SDS011;19112;51.076;3.706;2022-07-29T13:24:49;9.80;;;2.83;;
32734;SDS011;19112;51.076;3.706;2022-07-29T13:27:22;11.07;;;3.95;;
32734;SDS011;19112;51.076;3.706;2022-07-29T13:29:54;9.98;;;3.03;;
32734;SDS011;19112;51.076;3.706;2022-07-29T13:32:22;9.65;;;3.30;;
32734;SDS011;19112;51.076;3.706;2022-07-29T13:34:50;8.30;;;2.92;;
32734;SDS011;19112;51.076;3.706;2022-07-29T13:37:16;11.68;;;3.17;;
32734;SDS011;19112;51.076;3.706;2022-07-29T13:39:43;10.88;;;3.33;;
32734;SDS011;19112;51.076;3.706;2022-07-29T13:42:09;9.25;;;2.90;;
32734;SDS011;19112;51.076;3.706;2022-07-29T13:44:38;11.35;;;3.30;;
32734;SDS011;19112;51.076;3.706;2022-07-29T13:47:07;9.95;;;2.90;;
32734;SDS011;19112;51.076;3.706;2022-07-29T13:49:33;12.73;;;3.58;;
32734;SDS011;19112;51.076;3.706;2022-07-29T13:51:59;10.90;;;3.33;;
32734;SDS011;19112;51.076;3.706;2022-07-29T13:54:25;10.10;;;3.05;;
32734;SDS011;19112;51.076;3.706;2022-07-29T13:56:51;12.27;;;3.20;;
32734;SDS011;19112;51.076;3.706;2022-07-29T13:59:17;6.13;;;3.08;;
32734;SDS011;19112;51.076;3.706;2022-07-29T14:01:44;11.95;;;2.88;;
32734;SDS011;19112;51.076;3.706;2022-07-29T14:04:10;7.25;;;3.30;;
32734;SDS011;19112;51.076;3.706;2022-07-29T14:06:36;6.70;;;2.60;;
32734;SDS011;19112;51.076;3.706;2022-07-29T14:09:03;8.70;;;3.20;;
32734;SDS011;19112;51.076;3.706;2022-07-29T14:11:33;6.47;;;2.78;;
32734;SDS011;19112;51.076;3.706;2022-07-29T14:14:00;7.72;;;3.00;;
32734;SDS011;19112;51.076;3.706;2022-07-29T14:16:26;10.73;;;3.25;;
32734;SDS011;19112;51.076;3.706;2022-07-29T14:18:52;9.05;;;3.10;;
32734;SDS011;19112;51.076;3.706;2022-07-29T14:21:17;6.45;;;2.65;;
32734;SDS011;19112;51.076;3.706;2022-07-29T14:23:43;13.00;;;2.90;;
32734;SDS011;19112;51.076;3.706;2022-07-29T14:26:09;8.80;;;2.70;;
32734;SDS011;19112;51.076;3.706;2022-07-29T14:28:35;10.75;;;2.80;;
32734;SDS011;19112;51.076;3.706;2022-07-29T14:31:01;6.65;;;2.80;;
32734;SDS011;19112;51.076;3.706;2022-07-29T14:33:26;9.27;;;2.70;;
32734;SDS011;19112;51.076;3.706;2022-07-29T14:35:52;9.20;;;2.92;;
32734;SDS011;19112;51.076;3.706;2022-07-29T14:38:18;10.93;;;3.00;;
32734;SDS011;19112;51.076;3.706;2022-07-29T14:40:44;11.02;;;3.38;;
32734;SDS011;19112;51.076;3.706;2022-07-29T14:43:11;6.38;;;2.83;;
32734;SDS011;19112;51.076;3.706;2022-07-29T14:45:38;8.73;;;2.85;;
32734;SDS011;19112;51.076;3.706;2022-07-29T14:48:05;8.20;;;2.65;;
32734;SDS011;19112;51.076;3.706;2022-07-29T14:50:31;6.07;;;2.03;;
32734;SDS011;19112;51.076;3.706;2022-07-29T14:52:56;8.50;;;2.83;;
32734;SDS011;19112;51.076;3.706;2022-07-29T14:55:22;5.40;;;2.40;;
32734;SDS011;19112;51.076;3.706;2022-07-29T14:57:48;12.65;;;2.65;;
32734;SDS011;19112;51.076;3.706;2022-07-29T15:00:14;8.45;;;2.42;;
32734;SDS011;19112;51.076;3.706;2022-07-29T15:02:41;10.40;;;2.80;;
32734;SDS011;19112;51.076;3.706;2022-07-29T15:05:07;10.30;;;2.67;;
32734;SDS011;19112;51.076;3.706;2022-07-29T15:07:33;7.10;;;2.60;;
32734;SDS011;19112;51.076;3.706;2022-07-29T15:09:59;8.55;;;2.60;;
32734;SDS011;19112;51.076;3.706;2022-07-29T15:12:25;14.55;;;2.70;;
32734;SDS011;19112;51.076;3.706;2022-07-29T15:14:50;7.32;;;2.53;;
32734;SDS011;19112;51.076;3.706;2022-07-29T15:17:16;10.88;;;2.70;;
32734;SDS011;19112;51.076;3.706;2022-07-29T15:19:42;8.38;;;2.42;;
32734;SDS011;19112;51.076;3.706;2022-07-29T15:22:08;10.82;;;2.60;;
32734;SDS011;19112;51.076;3.706;2022-07-29T15:24:34;12.27;;;2.67;;
32734;SDS011;19112;51.076;3.706;2022-07-29T15:27:00;7.28;;;2.60;;
32734;SDS011;19112;51.076;3.706;2022-07-29T15:29:25;10.23;;;2.40;;
32734;SDS011;19112;51.076;3.706;2022-07-29T15:31:51;11.88;;;2.55;;
32734;SDS011;19112;51.076;3.706;2022-07-29T15:34:17;6.70;;;2.55;;